createdAt,value
2023-03-13T00:00:54.563Z,930.6
2023-03-13T00:15:53.386Z,930.3
2023-03-13T00:30:50.903Z,930.2
2023-03-13T00:45:49.986Z,929.8
2023-03-13T01:15:50.837Z,929.8
2023-03-13T01:30:52.732Z,929.9
2023-03-13T01:45:53.072Z,930.2
2023-03-13T02:00:46.397Z,929.7
2023-03-13T02:01:27.850Z,929.6
2023-03-13T02:15:52.970Z,929.6
2023-03-13T02:31:00.091Z,929.2
2023-03-13T02:45:52.448Z,929.2
2023-03-13T03:00:55.909Z,929.1
2023-03-13T03:15:54.329Z,929.1
2023-03-13T03:30:55.514Z,928.8
2023-03-13T03:45:56.410Z,928.4
2023-03-13T04:00:57.959Z,928.4
2023-03-13T04:15:55.133Z,928.1
2023-03-13T04:30:57.950Z,927.9
2023-03-13T04:45:56.771Z,927.8
2023-03-13T05:00:57.997Z,927.8
2023-03-13T05:15:58.273Z,927.6
2023-03-13T05:31:09.538Z,927.6
2023-03-13T05:41:51.092Z,927.3
2023-03-13T05:57:00.513Z,927.3
2023-03-13T06:11:53.169Z,927.2
2023-03-13T06:26:55.815Z,927.2
2023-03-13T06:41:55.340Z,927.2
2023-03-13T06:56:54.374Z,927.1
2023-03-13T07:11:57.297Z,927.1
2023-03-13T07:27:08.902Z,927.1
2023-03-13T07:41:57.653Z,927.1
2023-03-13T07:56:56.937Z,926.7
2023-03-13T08:11:59.958Z,926.7
2023-03-13T08:27:06.874Z,927
2023-03-13T08:42:07.152Z,926.6
2023-03-13T08:57:01.016Z,926.5
2023-03-13T09:12:06.532Z,926.5
2023-03-13T09:27:02.232Z,926.3
2023-03-13T09:42:02.495Z,926.2
2023-03-13T09:57:01.842Z,926.3
2023-03-13T10:12:02.681Z,926.1
2023-03-13T10:27:09.161Z,926.1
2023-03-13T10:42:04.262Z,925.6
2023-03-13T10:57:04.451Z,925.6
2023-03-13T11:12:04.956Z,925.7
2023-03-13T11:27:06.669Z,925
2023-03-13T11:42:28.013Z,925
2023-03-13T11:57:15.414Z,924.7
2023-03-13T12:12:09.720Z,924.4
2023-03-13T12:27:10.968Z,924.4
2023-03-13T12:42:10.206Z,923.9
2023-03-13T12:57:10.360Z,923.7
2023-03-13T13:12:15.386Z,923.3
2023-03-13T13:27:11.851Z,923
2023-03-13T13:42:11.777Z,922.7
2023-03-13T13:57:13.373Z,922.3
2023-03-13T14:12:12.605Z,921.8
2023-03-13T14:27:13.263Z,921.6
2023-03-13T14:42:14.403Z,921.4
2023-03-13T14:57:14.856Z,921
2023-03-13T15:12:17.301Z,920.5
2023-03-13T15:27:18.758Z,920.5
2023-03-13T15:42:21.860Z,920.1
2023-03-13T15:57:17.414Z,919.5
2023-03-13T16:12:19.092Z,919.2
2023-03-13T16:27:19.053Z,919.2
2023-03-13T16:42:52.118Z,918.8
2023-03-13T16:57:58.503Z,918.7
2023-03-13T17:12:25.706Z,918.3
2023-03-13T17:27:49.390Z,918
2023-03-13T17:42:22.114Z,917.7
2023-03-13T17:57:22.527Z,917.6
2023-03-13T18:12:34.995Z,917.6
2023-03-13T18:27:24.010Z,916.9
2023-03-13T18:42:24.920Z,916.7
2023-03-13T18:57:26.651Z,916.7
2023-03-13T19:12:28.018Z,916.2
2023-03-13T19:42:28.472Z,916
2023-03-13T19:57:29.696Z,916
2023-03-13T20:12:32.034Z,916.3
2023-03-13T20:27:37.916Z,916.3
2023-03-13T20:57:32.321Z,916.4
2023-03-13T21:12:31.039Z,916.6
2023-03-13T21:27:31.850Z,917.4
2023-03-13T21:42:32.699Z,917.9
2023-03-13T21:57:32.858Z,918.6
2023-03-13T22:12:33.704Z,919.2
2023-03-13T22:27:36.470Z,919.2
2023-03-13T22:42:37.802Z,919.4
2023-03-13T22:57:37.257Z,919
2023-03-13T23:00:44.072Z,918.5
2023-03-13T23:15:56.876Z,918.8
2023-03-13T23:45:42.981Z,919
